sensor_id;sensor_type;location;lat;lon;timestamp;pressure;altitude;pressure_sealevel;temperature
80537;BMP280;69867;47.074;15.404;2023-05-07T00:00:14;97412.78;;;15.07
80537;BMP280;69867;47.074;15.404;2023-05-07T00:02:39;97399.09;;;15.00
80537;BMP280;69867;47.074;15.404;2023-05-07T00:05:05;97399.31;;;14.96
80537;BMP280;69867;47.074;15.404;2023-05-07T00:07:30;97385.38;;;14.95
80537;BMP280;69867;47.074;15.404;2023-05-07T00:09:55;97375.19;;;14.89
80537;BMP280;69867;47.074;15.404;2023-05-07T00:12:21;97373.41;;;14.90
80537;BMP280;69867;47.074;15.404;2023-05-07T00:14:47;97379.69;;;14.86
80537;BMP280;69867;47.074;15.404;2023-05-07T00:17:12;97374.78;;;14.78
80537;BMP280;69867;47.074;15.404;2023-05-07T00:19:37;97382.78;;;14.75
80537;BMP280;69867;47.074;15.404;2023-05-07T00:22:03;97388.00;;;14.75
80537;BMP280;69867;47.074;15.404;2023-05-07T00:24:28;97398.47;;;14.75
80537;BMP280;69867;47.074;15.404;2023-05-07T00:26:53;97391.59;;;14.72
80537;BMP280;69867;47.074;15.404;2023-05-07T00:29:19;97380.34;;;14.70
80537;BMP280;69867;47.074;15.404;2023-05-07T00:31:44;97392.53;;;14.71
80537;BMP280;69867;47.074;15.404;2023-05-07T00:34:09;97388.28;;;14.69
80537;BMP280;69867;47.074;15.404;2023-05-07T00:36:35;97383.69;;;14.74
80537;BMP280;69867;47.074;15.404;2023-05-07T00:39:00;97390.63;;;14.75
80537;BMP280;69867;47.074;15.404;2023-05-07T00:41:26;97407.22;;;14.74
80537;BMP280;69867;47.074;15.404;2023-05-07T00:43:51;97403.91;;;14.70
80537;BMP280;69867;47.074;15.404;2023-05-07T00:46:17;97403.13;;;14.68
80537;BMP280;69867;47.074;15.404;2023-05-07T00:48:44;97407.63;;;14.65
80537;BMP280;69867;47.074;15.404;2023-05-07T00:51:10;97408.66;;;14.61
80537;BMP280;69867;47.074;15.404;2023-05-07T00:53:36;97412.38;;;14.55
80537;BMP280;69867;47.074;15.404;2023-05-07T00:56:02;97403.94;;;14.49
80537;BMP280;69867;47.074;15.404;2023-05-07T00:58:27;97409.38;;;14.44
80537;BMP280;69867;47.074;15.404;2023-05-07T01:00:52;97406.69;;;14.46
80537;BMP280;69867;47.074;15.404;2023-05-07T01:03:18;97402.53;;;14.40
80537;BMP280;69867;47.074;15.404;2023-05-07T01:05:44;97406.00;;;14.40
80537;BMP280;69867;47.074;15.404;2023-05-07T01:08:11;97395.00;;;14.32
80537;BMP280;69867;47.074;15.404;2023-05-07T01:10:36;97398.81;;;14.24
80537;BMP280;69867;47.074;15.404;2023-05-07T01:13:01;97393.91;;;14.16
80537;BMP280;69867;47.074;15.404;2023-05-07T01:15:27;97396.88;;;14.07
80537;BMP280;69867;47.074;15.404;2023-05-07T01:17:53;97384.19;;;13.98
80537;BMP280;69867;47.074;15.404;2023-05-07T01:20:18;97393.13;;;13.92
80537;BMP280;69867;47.074;15.404;2023-05-07T01:22:44;97387.25;;;13.87
80537;BMP280;69867;47.074;15.404;2023-05-07T01:25:09;97384.88;;;13.81
80537;BMP280;69867;47.074;15.404;2023-05-07T01:27:35;97377.28;;;13.75
80537;BMP280;69867;47.074;15.404;2023-05-07T01:30:01;97372.97;;;13.74
80537;BMP280;69867;47.074;15.404;2023-05-07T01:32:35;97378.00;;;13.78
80537;BMP280;69867;47.074;15.404;2023-05-07T01:35:05;97377.28;;;13.75
80537;BMP280;69867;47.074;15.404;2023-05-07T01:37:32;97378.19;;;13.74
80537;BMP280;69867;47.074;15.404;2023-05-07T01:39:58;97380.19;;;13.67
80537;BMP280;69867;47.074;15.404;2023-05-07T01:42:24;97381.34;;;13.60
80537;BMP280;69867;47.074;15.404;2023-05-07T01:44:49;97385.09;;;13.53
80537;BMP280;69867;47.074;15.404;2023-05-07T01:47:15;97383.50;;;13.49
80537;BMP280;69867;47.074;15.404;2023-05-07T01:49:41;97387.88;;;13.49
80537;BMP280;69867;47.074;15.404;2023-05-07T01:52:08;97385.44;;;13.44
80537;BMP280;69867;47.074;15.404;2023-05-07T01:54:33;97389.97;;;13.39
80537;BMP280;69867;47.074;15.404;2023-05-07T01:56:58;97386.63;;;13.35
80537;BMP280;69867;47.074;15.404;2023-05-07T01:59:24;97385.84;;;13.33
80537;BMP280;69867;47.074;15.404;2023-05-07T02:01:49;97379.94;;;13.28
80537;BMP280;69867;47.074;15.404;2023-05-07T02:04:14;97393.06;;;13.27
80537;BMP280;69867;47.074;15.404;2023-05-07T02:06:40;97392.25;;;13.25
80537;BMP280;69867;47.074;15.404;2023-05-07T02:09:05;97386.25;;;13.23
80537;BMP280;69867;47.074;15.404;2023-05-07T02:11:30;97385.34;;;13.24
80537;BMP280;69867;47.074;15.404;2023-05-07T02:13:56;97376.38;;;13.31
80537;BMP280;69867;47.074;15.404;2023-05-07T02:16:21;97372.63;;;13.38
80537;BMP280;69867;47.074;15.404;2023-05-07T02:18:47;97374.28;;;13.40
80537;BMP280;69867;47.074;15.404;2023-05-07T02:21:12;97385.56;;;13.41
80537;BMP280;69867;47.074;15.404;2023-05-07T02:23:37;97380.56;;;13.35
80537;BMP280;69867;47.074;15.404;2023-05-07T02:26:04;97387.16;;;13.22
80537;BMP280;69867;47.074;15.404;2023-05-07T02:28:29;97391.78;;;13.13
80537;BMP280;69867;47.074;15.404;2023-05-07T02:30:55;97398.19;;;13.05
80537;BMP280;69867;47.074;15.404;2023-05-07T02:33:20;97389.78;;;12.95
80537;BMP280;69867;47.074;15.404;2023-05-07T02:35:46;97398.69;;;12.90
80537;BMP280;69867;47.074;15.404;2023-05-07T02:38:11;97394.59;;;12.82
80537;BMP280;69867;47.074;15.404;2023-05-07T02:40:36;97392.16;;;12.78
80537;BMP280;69867;47.074;15.404;2023-05-07T02:43:02;97399.28;;;12.73
80537;BMP280;69867;47.074;15.404;2023-05-07T02:45:27;97389.91;;;12.67
80537;BMP280;69867;47.074;15.404;2023-05-07T02:47:52;97388.38;;;12.62
80537;BMP280;69867;47.074;15.404;2023-05-07T02:50:18;97385.06;;;12.57
80537;BMP280;69867;47.074;15.404;2023-05-07T02:52:43;97381.66;;;12.55
80537;BMP280;69867;47.074;15.404;2023-05-07T02:55:09;97385.28;;;12.50
80537;BMP280;69867;47.074;15.404;2023-05-07T02:57:34;97385.34;;;12.49
80537;BMP280;69867;47.074;15.404;2023-05-07T02:59:59;97395.88;;;12.46
80537;BMP280;69867;47.074;15.404;2023-05-07T03:02:25;97394.16;;;12.45
80537;BMP280;69867;47.074;15.404;2023-05-07T03:04:50;97398.56;;;12.43
80537;BMP280;69867;47.074;15.404;2023-05-07T03:07:15;97399.53;;;12.40
80537;BMP280;69867;47.074;15.404;2023-05-07T03:09:40;97393.56;;;12.37
80537;BMP280;69867;47.074;15.404;2023-05-07T03:12:06;97406.66;;;12.35
80537;BMP280;69867;47.074;15.404;2023-05-07T03:14:31;97413.63;;;12.35
80537;BMP280;69867;47.074;15.404;2023-05-07T03:16:57;97410.34;;;12.28
80537;BMP280;69867;47.074;15.404;2023-05-07T03:19:22;97407.81;;;12.27
80537;BMP280;69867;47.074;15.404;2023-05-07T03:21:47;97404.41;;;12.25
80537;BMP280;69867;47.074;15.404;2023-05-07T03:24:13;97403.66;;;12.21
80537;BMP280;69867;47.074;15.404;2023-05-07T03:26:38;97407.22;;;12.18
80537;BMP280;69867;47.074;15.404;2023-05-07T03:29:03;97411.63;;;12.16
80537;BMP280;69867;47.074;15.404;2023-05-07T03:31:29;97413.41;;;12.14
80537;BMP280;69867;47.074;15.404;2023-05-07T03:33:56;97419.56;;;12.12
80537;BMP280;69867;47.074;15.404;2023-05-07T03:36:22;97416.97;;;12.12
80537;BMP280;69867;47.074;15.404;2023-05-07T03:38:49;97421.28;;;12.13
80537;BMP280;69867;47.074;15.404;2023-05-07T03:41:14;97426.38;;;12.16
80537;BMP280;69867;47.074;15.404;2023-05-07T03:43:40;97428.09;;;12.17
80537;BMP280;69867;47.074;15.404;2023-05-07T03:46:05;97432.41;;;12.18
80537;BMP280;69867;47.074;15.404;2023-05-07T03:48:30;97428.84;;;12.21
80537;BMP280;69867;47.074;15.404;2023-05-07T03:50:57;97431.34;;;12.24
80537;BMP280;69867;47.074;15.404;2023-05-07T03:53:22;97433.09;;;12.23
80537;BMP280;69867;47.074;15.404;2023-05-07T03:55:48;97426.19;;;12.22
80537;BMP280;69867;47.074;15.404;2023-05-07T03:58:13;97430.31;;;12.29
80537;BMP280;69867;47.074;15.404;2023-05-07T04:00:39;97436.16;;;12.36
80537;BMP280;69867;47.074;15.404;2023-05-07T04:03:04;97430.69;;;12.43
80537;BMP280;69867;47.074;15.404;2023-05-07T04:05:30;97439.13;;;12.52
80537;BMP280;69867;47.074;15.404;2023-05-07T04:07:57;97440.50;;;12.62
80537;BMP280;69867;47.074;15.404;2023-05-07T04:10:22;97442.69;;;12.74
80537;BMP280;69867;47.074;15.404;2023-05-07T04:12:47;97441.47;;;12.84
80537;BMP280;69867;47.074;15.404;2023-05-07T04:15:13;97449.00;;;12.93
80537;BMP280;69867;47.074;15.404;2023-05-07T04:17:38;97439.16;;;13.01
80537;BMP280;69867;47.074;15.404;2023-05-07T04:20:04;97434.47;;;13.11
80537;BMP280;69867;47.074;15.404;2023-05-07T04:22:29;97440.25;;;13.21
80537;BMP280;69867;47.074;15.404;2023-05-07T04:24:55;97434.41;;;13.37
80537;BMP280;69867;47.074;15.404;2023-05-07T04:27:20;97433.84;;;13.53
80537;BMP280;69867;47.074;15.404;2023-05-07T04:29:45;97436.72;;;13.68
80537;BMP280;69867;47.074;15.404;2023-05-07T04:32:11;97441.47;;;13.81
80537;BMP280;69867;47.074;15.404;2023-05-07T04:34:36;97441.00;;;13.93
80537;BMP280;69867;47.074;15.404;2023-05-07T04:37:01;97449.38;;;14.01
80537;BMP280;69867;47.074;15.404;2023-05-07T04:39:26;97448.00;;;14.14
80537;BMP280;69867;47.074;15.404;2023-05-07T04:41:52;97459.78;;;14.24
80537;BMP280;69867;47.074;15.404;2023-05-07T04:44:17;97447.22;;;14.34
80537;BMP280;69867;47.074;15.404;2023-05-07T04:46:42;97455.28;;;14.28
80537;BMP280;69867;47.074;15.404;2023-05-07T04:49:08;97456.25;;;14.49
80537;BMP280;69867;47.074;15.404;2023-05-07T04:51:33;97452.41;;;14.57
80537;BMP280;69867;47.074;15.404;2023-05-07T04:53:58;97459.34;;;14.79
80537;BMP280;69867;47.074;15.404;2023-05-07T04:56:24;97455.81;;;15.20
80537;BMP280;69867;47.074;15.404;2023-05-07T04:58:49;97460.59;;;15.89
80537;BMP280;69867;47.074;15.404;2023-05-07T05:01:14;97454.53;;;16.97
80537;BMP280;69867;47.074;15.404;2023-05-07T05:03:40;97448.41;;;17.95
80537;BMP280;69867;47.074;15.404;2023-05-07T05:06:05;97446.00;;;18.69
80537;BMP280;69867;47.074;15.404;2023-05-07T05:08:30;97450.03;;;18.91
80537;BMP280;69867;47.074;15.404;2023-05-07T05:10:56;97463.50;;;18.70
80537;BMP280;69867;47.074;15.404;2023-05-07T05:13:21;97463.09;;;18.62
80537;BMP280;69867;47.074;15.404;2023-05-07T05:15:46;97467.06;;;18.53
80537;BMP280;69867;47.074;15.404;2023-05-07T05:18:12;97466.41;;;18.18
80537;BMP280;69867;47.074;15.404;2023-05-07T05:20:37;97480.06;;;17.60
80537;BMP280;69867;47.074;15.404;2023-05-07T05:23:02;97474.75;;;17.45
80537;BMP280;69867;47.074;15.404;2023-05-07T05:25:28;97480.03;;;17.27
80537;BMP280;69867;47.074;15.404;2023-05-07T05:27:53;97474.28;;;17.04
80537;BMP280;69867;47.074;15.404;2023-05-07T05:30:19;97478.72;;;16.84
80537;BMP280;69867;47.074;15.404;2023-05-07T05:32:44;97476.56;;;16.75
80537;BMP280;69867;47.074;15.404;2023-05-07T05:35:09;97482.03;;;16.71
80537;BMP280;69867;47.074;15.404;2023-05-07T05:37:35;97485.09;;;16.61
80537;BMP280;69867;47.074;15.404;2023-05-07T05:40:00;97486.19;;;16.39
80537;BMP280;69867;47.074;15.404;2023-05-07T05:42:25;97491.81;;;16.31
80537;BMP280;69867;47.074;15.404;2023-05-07T05:44:51;97490.97;;;16.30
80537;BMP280;69867;47.074;15.404;2023-05-07T05:47:16;97484.75;;;16.14
80537;BMP280;69867;47.074;15.404;2023-05-07T05:49:41;97484.16;;;16.26
80537;BMP280;69867;47.074;15.404;2023-05-07T05:52:07;97484.81;;;16.13
80537;BMP280;69867;47.074;15.404;2023-05-07T05:54:32;97484.50;;;16.38
80537;BMP280;69867;47.074;15.404;2023-05-07T05:56:57;97482.38;;;16.63
80537;BMP280;69867;47.074;15.404;2023-05-07T05:59:23;97483.53;;;17.11
80537;BMP280;69867;47.074;15.404;2023-05-07T06:01:48;97478.09;;;17.31
80537;BMP280;69867;47.074;15.404;2023-05-07T06:04:14;97478.88;;;17.33
80537;BMP280;69867;47.074;15.404;2023-05-07T06:06:39;97487.31;;;17.05
80537;BMP280;69867;47.074;15.404;2023-05-07T06:09:04;97489.63;;;17.28
80537;BMP280;69867;47.074;15.404;2023-05-07T06:11:31;97480.88;;;17.45
80537;BMP280;69867;47.074;15.404;2023-05-07T06:13:56;97478.25;;;17.78
80537;BMP280;69867;47.074;15.404;2023-05-07T06:16:22;97474.28;;;18.18
80537;BMP280;69867;47.074;15.404;2023-05-07T06:18:47;97473.44;;;18.65
80537;BMP280;69867;47.074;15.404;2023-05-07T06:21:13;97474.69;;;19.04
80537;BMP280;69867;47.074;15.404;2023-05-07T06:23:39;97476.78;;;19.13
80537;BMP280;69867;47.074;15.404;2023-05-07T06:26:04;97466.72;;;19.19
80537;BMP280;69867;47.074;15.404;2023-05-07T06:28:29;97480.34;;;19.12
80537;BMP280;69867;47.074;15.404;2023-05-07T06:30:54;97485.81;;;19.09
80537;BMP280;69867;47.074;15.404;2023-05-07T06:33:20;97487.50;;;18.80
80537;BMP280;69867;47.074;15.404;2023-05-07T06:35:45;97482.97;;;18.98
80537;BMP280;69867;47.074;15.404;2023-05-07T06:38:10;97484.16;;;18.92
80537;BMP280;69867;47.074;15.404;2023-05-07T06:40:36;97484.34;;;18.89
80537;BMP280;69867;47.074;15.404;2023-05-07T06:43:01;97491.06;;;19.09
80537;BMP280;69867;47.074;15.404;2023-05-07T06:45:26;97486.94;;;19.05
80537;BMP280;69867;47.074;15.404;2023-05-07T06:47:52;97488.75;;;18.89
80537;BMP280;69867;47.074;15.404;2023-05-07T06:50:17;97486.53;;;18.97
80537;BMP280;69867;47.074;15.404;2023-05-07T06:52:43;97488.53;;;19.07
80537;BMP280;69867;47.074;15.404;2023-05-07T06:55:08;97499.94;;;19.22
80537;BMP280;69867;47.074;15.404;2023-05-07T06:57:34;97494.00;;;19.18
80537;BMP280;69867;47.074;15.404;2023-05-07T06:59:59;97503.72;;;19.32
80537;BMP280;69867;47.074;15.404;2023-05-07T07:02:24;97503.34;;;18.94
80537;BMP280;69867;47.074;15.404;2023-05-07T07:04:50;97506.47;;;19.01
80537;BMP280;69867;47.074;15.404;2023-05-07T07:07:15;97499.72;;;19.11
80537;BMP280;69867;47.074;15.404;2023-05-07T07:09:40;97503.63;;;19.19
80537;BMP280;69867;47.074;15.404;2023-05-07T07:12:06;97502.00;;;19.17
80537;BMP280;69867;47.074;15.404;2023-05-07T07:14:31;97504.75;;;18.85
80537;BMP280;69867;47.074;15.404;2023-05-07T07:16:56;97502.72;;;19.05
80537;BMP280;69867;47.074;15.404;2023-05-07T07:19:22;97494.78;;;19.21
80537;BMP280;69867;47.074;15.404;2023-05-07T07:21:47;97500.63;;;19.40
80537;BMP280;69867;47.074;15.404;2023-05-07T07:24:13;97499.41;;;19.61
80537;BMP280;69867;47.074;15.404;2023-05-07T07:26:39;97501.19;;;19.61
80537;BMP280;69867;47.074;15.404;2023-05-07T07:29:04;97501.19;;;19.75
80537;BMP280;69867;47.074;15.404;2023-05-07T07:31:29;97503.06;;;19.73
80537;BMP280;69867;47.074;15.404;2023-05-07T07:33:54;97508.06;;;19.47
80537;BMP280;69867;47.074;15.404;2023-05-07T07:36:20;97513.22;;;19.21
80537;BMP280;69867;47.074;15.404;2023-05-07T07:38:45;97513.44;;;19.46
80537;BMP280;69867;47.074;15.404;2023-05-07T07:41:10;97516.75;;;19.49
80537;BMP280;69867;47.074;15.404;2023-05-07T07:43:36;97505.91;;;19.56
80537;BMP280;69867;47.074;15.404;2023-05-07T07:46:01;97510.13;;;19.58
80537;BMP280;69867;47.074;15.404;2023-05-07T07:48:27;97513.63;;;19.73
80537;BMP280;69867;47.074;15.404;2023-05-07T07:50:52;97502.22;;;19.72
80537;BMP280;69867;47.074;15.404;2023-05-07T07:53:18;97496.38;;;19.81
80537;BMP280;69867;47.074;15.404;2023-05-07T07:55:43;97507.50;;;20.01
80537;BMP280;69867;47.074;15.404;2023-05-07T07:58:09;97499.94;;;20.09
80537;BMP280;69867;47.074;15.404;2023-05-07T08:00:34;97499.63;;;20.28
80537;BMP280;69867;47.074;15.404;2023-05-07T08:03:00;97498.09;;;20.38
80537;BMP280;69867;47.074;15.404;2023-05-07T08:05:25;97510.34;;;20.53
80537;BMP280;69867;47.074;15.404;2023-05-07T08:07:50;97508.09;;;20.33
80537;BMP280;69867;47.074;15.404;2023-05-07T08:10:16;97500.41;;;20.16
80537;BMP280;69867;47.074;15.404;2023-05-07T08:12:41;97498.13;;;20.24
80537;BMP280;69867;47.074;15.404;2023-05-07T08:15:07;97491.59;;;20.29
80537;BMP280;69867;47.074;15.404;2023-05-07T08:17:32;97490.06;;;20.54
80537;BMP280;69867;47.074;15.404;2023-05-07T08:19:57;97491.09;;;20.51
80537;BMP280;69867;47.074;15.404;2023-05-07T08:22:23;97493.59;;;20.67
80537;BMP280;69867;47.074;15.404;2023-05-07T08:24:48;97494.75;;;20.63
80537;BMP280;69867;47.074;15.404;2023-05-07T08:27:13;97497.22;;;20.52
80537;BMP280;69867;47.074;15.404;2023-05-07T08:29:39;97506.53;;;20.57
80537;BMP280;69867;47.074;15.404;2023-05-07T08:32:04;97493.94;;;20.75
80537;BMP280;69867;47.074;15.404;2023-05-07T08:34:29;97509.13;;;20.86
80537;BMP280;69867;47.074;15.404;2023-05-07T08:36:55;97503.09;;;20.84
80537;BMP280;69867;47.074;15.404;2023-05-07T08:39:20;97503.47;;;20.77
80537;BMP280;69867;47.074;15.404;2023-05-07T08:41:45;97505.22;;;20.64
80537;BMP280;69867;47.074;15.404;2023-05-07T08:44:13;97491.66;;;20.56
80537;BMP280;69867;47.074;15.404;2023-05-07T08:46:39;97487.34;;;20.82
80537;BMP280;69867;47.074;15.404;2023-05-07T08:49:04;97494.66;;;20.91
80537;BMP280;69867;47.074;15.404;2023-05-07T08:51:30;97493.69;;;20.92
80537;BMP280;69867;47.074;15.404;2023-05-07T08:53:55;97488.97;;;20.70
80537;BMP280;69867;47.074;15.404;2023-05-07T08:56:20;97484.81;;;20.66
80537;BMP280;69867;47.074;15.404;2023-05-07T08:58:47;97482.72;;;20.71
80537;BMP280;69867;47.074;15.404;2023-05-07T09:01:14;97483.56;;;20.99
80537;BMP280;69867;47.074;15.404;2023-05-07T09:03:40;97487.25;;;20.84
80537;BMP280;69867;47.074;15.404;2023-05-07T09:06:06;97481.13;;;21.35
80537;BMP280;69867;47.074;15.404;2023-05-07T09:08:33;97477.94;;;21.68
80537;BMP280;69867;47.074;15.404;2023-05-07T09:10:58;97472.31;;;21.86
80537;BMP280;69867;47.074;15.404;2023-05-07T09:13:23;97481.31;;;21.83
80537;BMP280;69867;47.074;15.404;2023-05-07T09:15:49;97475.28;;;22.07
80537;BMP280;69867;47.074;15.404;2023-05-07T09:18:14;97473.47;;;22.20
80537;BMP280;69867;47.074;15.404;2023-05-07T09:20:41;97477.50;;;22.13
80537;BMP280;69867;47.074;15.404;2023-05-07T09:23:07;97470.59;;;22.23
80537;BMP280;69867;47.074;15.404;2023-05-07T09:25:34;97471.91;;;22.41
80537;BMP280;69867;47.074;15.404;2023-05-07T09:28:01;97477.03;;;22.55
80537;BMP280;69867;47.074;15.404;2023-05-07T09:30:31;97483.28;;;22.54
80537;BMP280;69867;47.074;15.404;2023-05-07T09:32:58;97475.28;;;22.43
80537;BMP280;69867;47.074;15.404;2023-05-07T09:35:23;97470.50;;;22.48
80537;BMP280;69867;47.074;15.404;2023-05-07T09:37:49;97474.50;;;22.54
80537;BMP280;69867;47.074;15.404;2023-05-07T09:40:28;97471.53;;;22.58
80537;BMP280;69867;47.074;15.404;2023-05-07T09:42:54;97477.94;;;22.43
80537;BMP280;69867;47.074;15.404;2023-05-07T09:45:25;97472.56;;;22.32
80537;BMP280;69867;47.074;15.404;2023-05-07T09:47:54;97472.69;;;22.30
80537;BMP280;69867;47.074;15.404;2023-05-07T09:50:22;97478.50;;;22.35
80537;BMP280;69867;47.074;15.404;2023-05-07T09:52:50;97480.81;;;22.40
80537;BMP280;69867;47.074;15.404;2023-05-07T09:55:16;97477.34;;;22.27
80537;BMP280;69867;47.074;15.404;2023-05-07T09:57:42;97479.56;;;22.33
80537;BMP280;69867;47.074;15.404;2023-05-07T10:00:09;97474.97;;;22.48
80537;BMP280;69867;47.074;15.404;2023-05-07T10:02:35;97470.69;;;22.58
80537;BMP280;69867;47.074;15.404;2023-05-07T10:05:01;97478.28;;;22.62
80537;BMP280;69867;47.074;15.404;2023-05-07T10:07:27;97473.72;;;22.64
80537;BMP280;69867;47.074;15.404;2023-05-07T10:09:54;97471.28;;;22.61
80537;BMP280;69867;47.074;15.404;2023-05-07T10:12:19;97467.69;;;22.62
80537;BMP280;69867;47.074;15.404;2023-05-07T10:14:45;97466.28;;;22.70
80537;BMP280;69867;47.074;15.404;2023-05-07T10:17:11;97468.06;;;22.69
80537;BMP280;69867;47.074;15.404;2023-05-07T10:19:37;97462.44;;;22.74
80537;BMP280;69867;47.074;15.404;2023-05-07T10:22:05;97463.06;;;23.01
80537;BMP280;69867;47.074;15.404;2023-05-07T10:24:35;97445.63;;;23.21
80537;BMP280;69867;47.074;15.404;2023-05-07T10:27:04;97461.88;;;23.05
80537;BMP280;69867;47.074;15.404;2023-05-07T10:32:43;97453.88;;;22.46
80537;BMP280;69867;47.074;15.404;2023-05-07T10:35:16;97446.63;;;22.37
80537;BMP280;69867;47.074;15.404;2023-05-07T10:37:43;97447.06;;;22.31
80537;BMP280;69867;47.074;15.404;2023-05-07T10:40:09;97442.16;;;22.38
80537;BMP280;69867;47.074;15.404;2023-05-07T10:42:35;97441.94;;;22.41
80537;BMP280;69867;47.074;15.404;2023-05-07T10:45:14;97448.53;;;22.59
80537;BMP280;69867;47.074;15.404;2023-05-07T10:48:11;97441.81;;;22.66
80537;BMP280;69867;47.074;15.404;2023-05-07T10:50:38;97447.28;;;22.76
80537;BMP280;69867;47.074;15.404;2023-05-07T10:58:23;97433.22;;;23.21
80537;BMP280;69867;47.074;15.404;2023-05-07T11:00:49;97434.97;;;23.45
80537;BMP280;69867;47.074;15.404;2023-05-07T11:03:15;97422.34;;;23.71
80537;BMP280;69867;47.074;15.404;2023-05-07T11:05:41;97429.31;;;24.05
80537;BMP280;69867;47.074;15.404;2023-05-07T11:08:08;97422.19;;;24.28
80537;BMP280;69867;47.074;15.404;2023-05-07T11:10:53;97420.34;;;24.40
80537;BMP280;69867;47.074;15.404;2023-05-07T11:13:45;97421.13;;;24.51
80537;BMP280;69867;47.074;15.404;2023-05-07T11:16:18;97412.19;;;24.52
80537;BMP280;69867;47.074;15.404;2023-05-07T11:18:56;97413.03;;;24.53
80537;BMP280;69867;47.074;15.404;2023-05-07T11:21:38;97408.66;;;24.63
80537;BMP280;69867;47.074;15.404;2023-05-07T11:24:05;97407.91;;;24.72
80537;BMP280;69867;47.074;15.404;2023-05-07T11:26:41;97411.31;;;24.63
80537;BMP280;69867;47.074;15.404;2023-05-07T11:29:15;97411.44;;;24.73
80537;BMP280;69867;47.074;15.404;2023-05-07T11:31:40;97408.44;;;24.87
80537;BMP280;69867;47.074;15.404;2023-05-07T11:34:06;97392.91;;;24.82
80537;BMP280;69867;47.074;15.404;2023-05-07T11:36:32;97401.19;;;24.89
80537;BMP280;69867;47.074;15.404;2023-05-07T11:38:58;97393.25;;;25.10
80537;BMP280;69867;47.074;15.404;2023-05-07T11:41:33;97397.84;;;25.29
80537;BMP280;69867;47.074;15.404;2023-05-07T11:43:59;97397.38;;;25.24
80537;BMP280;69867;47.074;15.404;2023-05-07T11:46:26;97388.97;;;25.18
80537;BMP280;69867;47.074;15.404;2023-05-07T11:48:51;97388.75;;;25.31
80537;BMP280;69867;47.074;15.404;2023-05-07T11:51:24;97386.19;;;25.50
80537;BMP280;69867;47.074;15.404;2023-05-07T11:53:50;97379.00;;;25.41
80537;BMP280;69867;47.074;15.404;2023-05-07T11:56:16;97370.75;;;25.75
80537;BMP280;69867;47.074;15.404;2023-05-07T11:58:43;97374.22;;;25.66
80537;BMP280;69867;47.074;15.404;2023-05-07T12:01:10;97373.75;;;25.61
80537;BMP280;69867;47.074;15.404;2023-05-07T12:03:37;97374.03;;;25.58
80537;BMP280;69867;47.074;15.404;2023-05-07T12:06:05;97376.44;;;25.30
80537;BMP280;69867;47.074;15.404;2023-05-07T12:08:31;97372.44;;;25.15
80537;BMP280;69867;47.074;15.404;2023-05-07T12:10:56;97380.00;;;25.19
80537;BMP280;69867;47.074;15.404;2023-05-07T12:13:25;97385.50;;;25.28
80537;BMP280;69867;47.074;15.404;2023-05-07T12:15:54;97388.34;;;25.36
80537;BMP280;69867;47.074;15.404;2023-05-07T12:18:21;97388.06;;;25.08
80537;BMP280;69867;47.074;15.404;2023-05-07T12:20:47;97387.75;;;25.02
80537;BMP280;69867;47.074;15.404;2023-05-07T12:23:13;97386.38;;;25.07
80537;BMP280;69867;47.074;15.404;2023-05-07T12:25:40;97378.44;;;24.96
80537;BMP280;69867;47.074;15.404;2023-05-07T12:28:06;97386.75;;;24.82
80537;BMP280;69867;47.074;15.404;2023-05-07T12:30:37;97392.13;;;24.60
80537;BMP280;69867;47.074;15.404;2023-05-07T12:33:02;97386.72;;;24.50
80537;BMP280;69867;47.074;15.404;2023-05-07T12:35:31;97388.59;;;24.38
80537;BMP280;69867;47.074;15.404;2023-05-07T12:38:00;97393.09;;;24.15
80537;BMP280;69867;47.074;15.404;2023-05-07T12:40:38;97390.50;;;23.93
80537;BMP280;69867;47.074;15.404;2023-05-07T12:43:04;97397.25;;;23.75
80537;BMP280;69867;47.074;15.404;2023-05-07T12:45:29;97388.94;;;23.46
80537;BMP280;69867;47.074;15.404;2023-05-07T12:47:54;97399.84;;;23.30
80537;BMP280;69867;47.074;15.404;2023-05-07T12:50:20;97400.53;;;23.10
80537;BMP280;69867;47.074;15.404;2023-05-07T12:52:47;97402.13;;;22.77
80537;BMP280;69867;47.074;15.404;2023-05-07T12:55:15;97407.06;;;22.47
80537;BMP280;69867;47.074;15.404;2023-05-07T12:58:01;97409.03;;;22.32
80537;BMP280;69867;47.074;15.404;2023-05-07T13:00:36;97410.91;;;22.19
80537;BMP280;69867;47.074;15.404;2023-05-07T13:03:02;97420.09;;;22.00
80537;BMP280;69867;47.074;15.404;2023-05-07T13:05:28;97420.91;;;21.77
80537;BMP280;69867;47.074;15.404;2023-05-07T13:07:54;97430.69;;;21.51
80537;BMP280;69867;47.074;15.404;2023-05-07T13:10:20;97443.28;;;20.83
80537;BMP280;69867;47.074;15.404;2023-05-07T13:12:45;97447.41;;;20.33
80537;BMP280;69867;47.074;15.404;2023-05-07T13:15:10;97434.53;;;19.73
80537;BMP280;69867;47.074;15.404;2023-05-07T13:17:36;97446.84;;;19.00
80537;BMP280;69867;47.074;15.404;2023-05-07T13:20:01;97440.78;;;18.38
80537;BMP280;69867;47.074;15.404;2023-05-07T13:22:27;97443.41;;;18.06
80537;BMP280;69867;47.074;15.404;2023-05-07T13:24:52;97443.84;;;17.83
80537;BMP280;69867;47.074;15.404;2023-05-07T13:27:17;97451.72;;;17.50
80537;BMP280;69867;47.074;15.404;2023-05-07T13:29:43;97450.50;;;17.40
80537;BMP280;69867;47.074;15.404;2023-05-07T13:32:08;97467.00;;;17.26
80537;BMP280;69867;47.074;15.404;2023-05-07T13:34:33;97476.72;;;17.24
80537;BMP280;69867;47.074;15.404;2023-05-07T13:36:59;97505.00;;;17.19
80537;BMP280;69867;47.074;15.404;2023-05-07T13:39:24;97511.66;;;16.91
80537;BMP280;69867;47.074;15.404;2023-05-07T13:41:49;97526.53;;;16.91
80537;BMP280;69867;47.074;15.404;2023-05-07T13:44:15;97551.13;;;16.88
80537;BMP280;69867;47.074;15.404;2023-05-07T13:46:40;97556.53;;;16.85
80537;BMP280;69867;47.074;15.404;2023-05-07T13:49:05;97549.59;;;16.84
80537;BMP280;69867;47.074;15.404;2023-05-07T13:51:31;97544.16;;;16.70
80537;BMP280;69867;47.074;15.404;2023-05-07T13:53:56;97533.66;;;16.70
80537;BMP280;69867;47.074;15.404;2023-05-07T13:56:21;97519.78;;;16.68
80537;BMP280;69867;47.074;15.404;2023-05-07T13:58:47;97514.59;;;16.67